^^
Station Historical Data
Daily Summary for November 14, 2017 Units:  Both    English   Metric
« Previous Day
Next Day »
Daily Weekly Monthly Yearly Custom
  High: Low: Average:
Temperature: TemperatureF °F /  -17.8 °C 56.1 °F /  13.4 °C 71.2 °F /  21.8 °C
Dew Point: DewpointF °F /  -17.8 °C 2.5 °F /  -16.4 °C 30.4 °F /  -0.9 °C
Humidity: Humidity% 6% 30%
Wind Speed: WindSpeedMPHmph /  0km/h - 2.2mph /  3.5km/h
Wind Gust: WindSpeedGustMPHmph /  0km/h - -
Wind- - West
Pressure: PressureIn in /  0 hPa 29.57 in /  1001.2 hPa -
Precipitation: 0.00 in /  0 mm    
Historical Graphs
 
 
Tabular Data for November 14, 2017
Time Temperature Dew Point Pressure Wind Wind Speed Wind Gust Humidity Rainfall Rate (Hourly) solar Conditions
TemperatureF °F /  -17.8 °C DewpointF °F /  -17.8 °C PressureInin /  0hPa Calm     Humidity% HourlyPrecipInin /  0mm SolarRadiationWatts/m^2 W/m2 Conditions
00:04 66.6 °F /  19.2 °C 49.8 °F /  9.9 °C 29.68in /  1005hPa Calm     55% 0.00in /  0mm 0.0 W/m2
00:10 66.2 °F /  19 °C 50.0 °F /  10 °C 29.68in /  1005hPa Calm     56% 0.00in /  0mm 0.0 W/m2
00:15 65.8 °F /  18.8 °C 49.6 °F /  9.8 °C 29.68in /  1005hPa Calm     56% 0.00in /  0mm 0.0 W/m2
00:20 65.7 °F /  18.7 °C 49.5 °F /  9.7 °C 29.68in /  1005hPa Calm     56% 0.00in /  0mm 0.0 W/m2
00:26 65.5 °F /  18.6 °C 49.8 °F /  9.9 °C 29.67in /  1004.6hPa Calm     57% 0.00in /  0mm 0.0 W/m2
00:31 65.3 °F /  18.5 °C 49.6 °F /  9.8 °C 29.67in /  1004.6hPa Calm     57% 0.00in /  0mm 0.0 W/m2
00:36 65.1 °F /  18.4 °C 49.5 °F /  9.7 °C 29.67in /  1004.6hPa Calm     57% 0.00in /  0mm 0.0 W/m2
00:42 64.9 °F /  18.3 °C 48.9 °F /  9.4 °C 29.67in /  1004.6hPa Calm     56% 0.00in /  0mm 0.0 W/m2
00:47 64.8 °F /  18.2 °C 49.1 °F /  9.5 °C 29.67in /  1004.6hPa Calm     57% 0.00in /  0mm 0.0 W/m2
00:52 64.8 °F /  18.2 °C 49.1 °F /  9.5 °C 29.67in /  1004.6hPa Calm     57% 0.00in /  0mm 0.0 W/m2
00:57 64.6 °F /  18.1 °C 48.9 °F /  9.4 °C 29.67in /  1004.6hPa Calm     57% 0.00in /  0mm 0.0 W/m2
01:02 64.2 °F /  17.9 °C 49.1 °F /  9.5 °C 29.67in /  1004.6hPa Calm   1.0mph /  1.6km/h 58% 0.00in /  0mm 0.0 W/m2
01:07 64.0 °F /  17.8 °C 48.9 °F /  9.4 °C 29.66in /  1004.3hPa Calm     58% 0.00in /  0mm 0.0 W/m2
01:12 63.9 °F /  17.7 °C 48.7 °F /  9.3 °C 29.66in /  1004.3hPa Calm     58% 0.00in /  0mm 0.0 W/m2
01:17 63.9 °F /  17.7 °C 48.7 °F /  9.3 °C 29.66in /  1004.3hPa Calm     58% 0.00in /  0mm 0.0 W/m2
01:23 63.7 °F /  17.6 °C 49.1 °F /  9.5 °C 29.66in /  1004.3hPa Calm     59% 0.00in /  0mm 0.0 W/m2
01:28 63.7 °F /  17.6 °C 49.1 °F /  9.5 °C 29.65in /  1003.9hPa Calm     59% 0.00in /  0mm 0.0 W/m2
01:33 63.7 °F /  17.6 °C 49.1 °F /  9.5 °C 29.65in /  1003.9hPa Calm     59% 0.00in /  0mm 0.0 W/m2
01:39 63.5 °F /  17.5 °C 48.9 °F /  9.4 °C 29.65in /  1003.9hPa Calm     59% 0.00in /  0mm 0.0 W/m2
01:44 63.3 °F /  17.4 °C 48.7 °F /  9.3 °C 29.65in /  1003.9hPa Calm     59% 0.00in /  0mm 0.0 W/m2
01:49 63.3 °F /  17.4 °C 48.7 °F /  9.3 °C 29.65in /  1003.9hPa Calm   1.0mph /  1.6km/h 59% 0.00in /  0mm 0.0 W/m2
01:54 63.1 °F /  17.3 °C 48.6 °F /  9.2 °C 29.65in /  1003.9hPa Calm   1.0mph /  1.6km/h 59% 0.00in /  0mm 0.0 W/m2
01:59 63.1 °F /  17.3 °C 48.6 °F /  9.2 °C 29.64in /  1003.6hPa Calm   1.0mph /  1.6km/h 59% 0.00in /  0mm 0.0 W/m2
02:04 63.0 °F /  17.2 °C 48.4 °F /  9.1 °C 29.64in /  1003.6hPa Calm     59% 0.00in /  0mm 0.0 W/m2
02:09 63.0 °F /  17.2 °C 48.9 °F /  9.4 °C 29.65in /  1003.9hPa Calm     60% 0.00in /  0mm 0.0 W/m2
02:14 63.0 °F /  17.2 °C 48.9 °F /  9.4 °C 29.65in /  1003.9hPa Calm     60% 0.00in /  0mm 0.0 W/m2
02:20 62.8 °F /  17.1 °C 48.7 °F /  9.3 °C 29.64in /  1003.6hPa Calm     60% 0.00in /  0mm 0.0 W/m2
02:25 62.8 °F /  17.1 °C 48.7 °F /  9.3 °C 29.64in /  1003.6hPa Calm     60% 0.00in /  0mm 0.0 W/m2
02:30 62.4 °F /  16.9 °C 48.7 °F /  9.3 °C 29.64in /  1003.6hPa Calm     61% 0.00in /  0mm 0.0 W/m2
02:35 62.4 °F /  16.9 °C 48.7 °F /  9.3 °C 29.64in /  1003.6hPa Calm     61% 0.00in /  0mm 0.0 W/m2
02:41 62.4 °F /  16.9 °C 48.7 °F /  9.3 °C 29.64in /  1003.6hPa Calm     61% 0.00in /  0mm 0.0 W/m2
02:46 62.2 °F /  16.8 °C 48.6 °F /  9.2 °C 29.64in /  1003.6hPa Calm     61% 0.00in /  0mm 0.0 W/m2
02:51 62.1 °F /  16.7 °C 48.4 °F /  9.1 °C 29.64in /  1003.6hPa Calm     61% 0.00in /  0mm 0.0 W/m2
02:57 61.9 °F /  16.6 °C 48.7 °F /  9.3 °C 29.64in /  1003.6hPa Calm     62% 0.00in /  0mm 0.0 W/m2
03:02 61.7 °F /  16.5 °C 48.6 °F /  9.2 °C 29.64in /  1003.6hPa Calm     62% 0.00in /  0mm 0.0 W/m2
03:07 61.5 °F /  16.4 °C 48.7 °F /  9.3 °C 29.64in /  1003.6hPa Calm     63% 0.00in /  0mm 0.0 W/m2
03:13 61.3 °F /  16.3 °C 48.2 °F /  9 °C 29.64in /  1003.6hPa Calm     62% 0.00in /  0mm 0.0 W/m2
03:18 61.2 °F /  16.2 °C 48.4 °F /  9.1 °C 29.63in /  1003.3hPa Calm     63% 0.00in /  0mm 0.0 W/m2
03:23 61.0 °F /  16.1 °C 48.4 °F /  9.1 °C 29.63in /  1003.3hPa Calm     63% 0.00in /  0mm 0.0 W/m2
03:29 60.6 °F /  15.9 °C 48.0 °F /  8.9 °C 29.63in /  1003.3hPa Calm     63% 0.00in /  0mm 0.0 W/m2
03:34 60.4 °F /  15.8 °C 48.2 °F /  9 °C 29.62in /  1002.9hPa Calm     64% 0.00in /  0mm 0.0 W/m2
03:40 60.3 °F /  15.7 °C 48.0 °F /  8.9 °C 29.62in /  1002.9hPa Calm     64% 0.00in /  0mm 0.0 W/m2
03:45 60.1 °F /  15.6 °C 47.8 °F /  8.8 °C 29.62in /  1002.9hPa Calm     64% 0.00in /  0mm 0.0 W/m2
03:51 59.7 °F /  15.4 °C 48.0 °F /  8.9 °C 29.62in /  1002.9hPa Calm     65% 0.00in /  0mm 0.0 W/m2
03:56 59.5 °F /  15.3 °C 47.8 °F /  8.8 °C 29.62in /  1002.9hPa Calm     65% 0.00in /  0mm 0.0 W/m2
04:01 59.4 °F /  15.2 °C 47.7 °F /  8.7 °C 29.62in /  1002.9hPa Calm     65% 0.00in /  0mm 0.0 W/m2
04:07 59.2 °F /  15.1 °C 47.5 °F /  8.6 °C 29.62in /  1002.9hPa Calm     65% 0.00in /  0mm 0.0 W/m2
04:12 58.8 °F /  14.9 °C 47.1 °F /  8.4 °C 29.62in /  1002.9hPa Calm     65% 0.00in /  0mm 0.0 W/m2
04:17 58.8 °F /  14.9 °C 46.6 °F /  8.1 °C 29.62in /  1002.9hPa Calm   1.0mph /  1.6km/h 64% 0.00in /  0mm 0.0 W/m2
04:22 58.6 °F /  14.8 °C 46.9 °F /  8.3 °C 29.62in /  1002.9hPa Calm     65% 0.00in /  0mm 0.0 W/m2
04:27 58.6 °F /  14.8 °C 46.9 °F /  8.3 °C 29.62in /  1002.9hPa Calm     65% 0.00in /  0mm 0.0 W/m2
04:33 58.5 °F /  14.7 °C 46.4 °F /  8 °C 29.62in /  1002.9hPa Calm   1.0mph /  1.6km/h 64% 0.00in /  0mm 0.0 W/m2
04:38 58.5 °F /  14.7 °C 47.1 °F /  8.4 °C 29.62in /  1002.9hPa Calm     66% 0.00in /  0mm 0.0 W/m2
04:43 58.3 °F /  14.6 °C 46.9 °F /  8.3 °C 29.62in /  1002.9hPa Calm     66% 0.00in /  0mm 0.0 W/m2
04:49 57.9 °F /  14.4 °C 46.6 °F /  8.1 °C 29.62in /  1002.9hPa Calm     66% 0.00in /  0mm 0.0 W/m2
04:54 57.9 °F /  14.4 °C 46.9 °F /  8.3 °C 29.62in /  1002.9hPa Calm     67% 0.00in /  0mm 0.0 W/m2
04:59 57.7 °F /  14.3 °C 46.9 °F /  8.3 °C 29.62in /  1002.9hPa Calm     67% 0.00in /  0mm 0.0 W/m2
05:05 57.6 °F /  14.2 °C 46.8 °F /  8.2 °C 29.62in /  1002.9hPa Calm     67% 0.00in /  0mm 0.0 W/m2
05:08 57.4 °F /  14.1 °C 46.6 °F /  8.1 °C 29.62in /  1002.9hPa Calm     67% 0.00in /  0mm 0.0 W/m2
05:10 57.4 °F /  14.1 °C 46.6 °F /  8.1 °C 29.62in /  1002.9hPa Calm     67% 0.00in /  0mm 0.0 W/m2
05:15 57.4 °F /  14.1 °C 46.9 °F /  8.3 °C 29.62in /  1002.9hPa Calm     68% 0.00in /  0mm 0.0 W/m2
05:21 57.0 °F /  13.9 °C 46.2 °F /  7.9 °C 29.62in /  1002.9hPa Calm   1.0mph /  1.6km/h 67% 0.00in /  0mm 0.0 W/m2
05:26 57.0 °F /  13.9 °C 46.2 °F /  7.9 °C 29.62in /  1002.9hPa Calm     67% 0.00in /  0mm 0.0 W/m2
05:31 56.8 °F /  13.8 °C 46.0 °F /  7.8 °C 29.62in /  1002.9hPa Calm   1.0mph /  1.6km/h 67% 0.00in /  0mm 0.0 W/m2
05:35 56.8 °F /  13.8 °C 46.0 °F /  7.8 °C 29.62in /  1002.9hPa Calm   2.0mph /  3.2km/h 67% 0.00in /  0mm 0.0 W/m2
05:40 56.7 °F /  13.7 °C 45.9 °F /  7.7 °C 29.63in /  1003.3hPa ESE 0.9mph /  1.4km/h 3.0mph /  4.8km/h 67% 0.00in /  0mm 0.0 W/m2
05:46 56.7 °F /  13.7 °C 46.2 °F /  7.9 °C 29.63in /  1003.3hPa Calm     68% 0.00in /  0mm 0.0 W/m2
05:51 56.7 °F /  13.7 °C 45.9 °F /  7.7 °C 29.63in /  1003.3hPa Calm   2.0mph /  3.2km/h 67% 0.00in /  0mm 0.0 W/m2
05:56 56.7 °F /  13.7 °C 45.9 °F /  7.7 °C 29.63in /  1003.3hPa Calm   1.0mph /  1.6km/h 67% 0.00in /  0mm 0.0 W/m2
06:02 56.7 °F /  13.7 °C 45.9 °F /  7.7 °C 29.63in /  1003.3hPa Calm     67% 0.00in /  0mm 0.0 W/m2
06:08 56.7 °F /  13.7 °C 45.9 °F /  7.7 °C 29.64in /  1003.6hPa Calm     67% 0.00in /  0mm 0.0 W/m2
06:13 56.5 °F /  13.6 °C 45.7 °F /  7.6 °C 29.64in /  1003.6hPa Calm     67% 0.00in /  0mm 7.0 W/m2
06:19 56.5 °F /  13.6 °C 45.7 °F /  7.6 °C 29.64in /  1003.6hPa Calm   1.0mph /  1.6km/h 67% 0.00in /  0mm 9.0 W/m2
06:24 56.5 °F /  13.6 °C 45.7 °F /  7.6 °C 29.64in /  1003.6hPa Calm     67% 0.00in /  0mm 12.0 W/m2
06:30 56.5 °F /  13.6 °C 45.3 °F /  7.4 °C 29.64in /  1003.6hPa Calm   1.0mph /  1.6km/h 66% 0.00in /  0mm 14.0 W/m2
06:35 56.7 °F /  13.7 °C 45.5 °F /  7.5 °C 29.65in /  1003.9hPa Calm   2.0mph /  3.2km/h 66% 0.00in /  0mm 16.0 W/m2
06:40 56.8 °F /  13.8 °C 45.7 °F /  7.6 °C 29.65in /  1003.9hPa Calm     66% 0.00in /  0mm 19.0 W/m2
06:45 56.8 °F /  13.8 °C 46.0 °F /  7.8 °C 29.65in /  1003.9hPa Calm     67% 0.00in /  0mm 19.0 W/m2
06:50 57.0 °F /  13.9 °C 45.3 °F /  7.4 °C 29.65in /  1003.9hPa Calm   1.0mph /  1.6km/h 65% 0.00in /  0mm 21.0 W/m2
06:55 57.4 °F /  14.1 °C 46.0 °F /  7.8 °C 29.65in /  1003.9hPa Calm     66% 0.00in /  0mm 23.0 W/m2
07:00 57.7 °F /  14.3 °C 46.4 °F /  8 °C 29.65in /  1003.9hPa Calm     66% 0.00in /  0mm 25.0 W/m2
07:05 58.3 °F /  14.6 °C 46.2 °F /  7.9 °C 29.66in /  1004.3hPa Calm     64% 0.00in /  0mm 25.0 W/m2
07:12 58.8 °F /  14.9 °C 45.0 °F /  7.2 °C 29.65in /  1003.9hPa Calm     60% 0.00in /  0mm 65.0 W/m2
07:17 59.2 °F /  15.1 °C 45.7 °F /  7.6 °C 29.66in /  1004.3hPa Calm     61% 0.00in /  0mm 51.0 W/m2
07:22 59.5 °F /  15.3 °C 45.7 °F /  7.6 °C 29.66in /  1004.3hPa Calm     60% 0.00in /  0mm 114.0 W/m2
07:27 59.9 °F /  15.5 °C 45.5 °F /  7.5 °C 29.66in /  1004.3hPa Calm     59% 0.00in /  0mm 301.0 W/m2
07:33 60.6 °F /  15.9 °C 42.4 °F /  5.8 °C 29.66in /  1004.3hPa Calm     51% 0.00in /  0mm 329.0 W/m2
07:38 61.2 °F /  16.2 °C 40.3 °F /  4.6 °C 29.66in /  1004.3hPa Calm     46% 0.00in /  0mm 350.0 W/m2
07:43 62.1 °F /  16.7 °C 38.1 °F /  3.4 °C 29.66in /  1004.3hPa Calm     41% 0.00in /  0mm 369.0 W/m2
07:48 63.1 °F /  17.3 °C 39.0 °F /  3.9 °C 29.67in /  1004.6hPa Calm     41% 0.00in /  0mm 388.0 W/m2
07:53 64.2 °F /  17.9 °C 32.9 °F /  0.5 °C 29.67in /  1004.6hPa WSW 4.0mph /  6.4km/h 4.0mph /  6.4km/h 31% 0.00in /  0mm 413.0 W/m2
07:58 65.7 °F /  18.7 °C 31.6 °F /  -0.2 °C 29.67in /  1004.6hPa Calm   1.0mph /  1.6km/h 28% 0.00in /  0mm 432.0 W/m2
08:03 66.7 °F /  19.3 °C 34.3 °F /  1.3 °C 29.67in /  1004.6hPa Calm   2.0mph /  3.2km/h 30% 0.00in /  0mm 454.0 W/m2
08:08 67.8 °F /  19.9 °C 32.5 °F /  0.3 °C 29.67in /  1004.6hPa Calm   5.0mph /  8km/h 27% 0.00in /  0mm 473.0 W/m2
08:15 69.1 °F /  20.6 °C 31.8 °F /  -0.1 °C 29.67in /  1004.6hPa West 0.9mph /  1.4km/h 1.0mph /  1.6km/h 25% 0.00in /  0mm 501.0 W/m2
08:21 70.2 °F /  21.2 °C 30.6 °F /  -0.8 °C 29.67in /  1004.6hPa Calm   5.0mph /  8km/h 23% 0.00in /  0mm 520.0 W/m2
08:26 70.5 °F /  21.4 °C 29.8 °F /  -1.2 °C 29.67in /  1004.6hPa NW 0.9mph /  1.4km/h 2.0mph /  3.2km/h 22% 0.00in /  0mm 540.0 W/m2
08:31 71.1 °F /  21.7 °C 30.2 °F /  -1 °C 29.67in /  1004.6hPa WNW 2.0mph /  3.2km/h 4.0mph /  6.4km/h 22% 0.00in /  0mm 557.0 W/m2
08:36 71.4 °F /  21.9 °C 24.3 °F /  -4.3 °C 29.68in /  1005hPa WNW 0.9mph /  1.4km/h 7.0mph /  11.3km/h 17% 0.00in /  0mm 577.0 W/m2
08:41 71.8 °F /  22.1 °C 26.1 °F /  -3.3 °C 29.68in /  1005hPa SW 0.9mph /  1.4km/h 3.0mph /  4.8km/h 18% 0.00in /  0mm 596.0 W/m2
08:46 72.1 °F /  22.3 °C 25.0 °F /  -3.9 °C 29.68in /  1005hPa West 2.0mph /  3.2km/h 3.0mph /  4.8km/h 17% 0.00in /  0mm 617.0 W/m2
08:51 72.5 °F /  22.5 °C 20.7 °F /  -6.3 °C 29.68in /  1005hPa SW 2.9mph /  4.7km/h 6.0mph /  9.7km/h 14% 0.00in /  0mm 636.0 W/m2
08:56 72.9 °F /  22.7 °C 20.8 °F /  -6.2 °C 29.68in /  1005hPa Calm   5.0mph /  8km/h 14% 0.00in /  0mm 654.0 W/m2
09:02 73.4 °F /  23 °C 19.6 °F /  -6.9 °C 29.68in /  1005hPa Calm   1.0mph /  1.6km/h 13% 0.00in /  0mm 673.0 W/m2
09:07 74.3 °F /  23.5 °C 23.7 °F /  -4.6 °C 29.68in /  1005hPa NNW 4.0mph /  6.4km/h 5.0mph /  8km/h 15% 0.00in /  0mm 687.0 W/m2
09:12 75.4 °F /  24.1 °C 26.1 °F /  -3.3 °C 29.68in /  1005hPa NNW 4.9mph /  7.9km/h 5.0mph /  8km/h 16% 0.00in /  0mm 703.0 W/m2
09:17 75.9 °F /  24.4 °C 25.0 °F /  -3.9 °C 29.68in /  1005hPa NNW 4.0mph /  6.4km/h 4.0mph /  6.4km/h 15% 0.00in /  0mm 719.0 W/m2
09:22 76.5 °F /  24.7 °C 27.0 °F /  -2.8 °C 29.68in /  1005hPa NNE 0.9mph /  1.4km/h 3.0mph /  4.8km/h 16% 0.00in /  0mm 738.0 W/m2
09:27 77.2 °F /  25.1 °C 24.3 °F /  -4.3 °C 29.68in /  1005hPa Calm   7.0mph /  11.3km/h 14% 0.00in /  0mm 758.0 W/m2
09:32 77.4 °F /  25.2 °C 26.1 °F /  -3.3 °C 29.68in /  1005hPa Calm   4.0mph /  6.4km/h 15% 0.00in /  0mm 773.0 W/m2
09:37 77.9 °F /  25.5 °C 24.8 °F /  -4 °C 29.68in /  1005hPa NNW 6.0mph /  9.7km/h 8.0mph /  12.9km/h 14% 0.00in /  0mm 788.0 W/m2
09:42 78.4 °F /  25.8 °C 25.3 °F /  -3.7 °C 29.68in /  1005hPa North 4.0mph /  6.4km/h 7.0mph /  11.3km/h 14% 0.00in /  0mm 807.0 W/m2
09:47 79.0 °F /  26.1 °C 25.7 °F /  -3.5 °C 29.68in /  1005hPa North 4.0mph /  6.4km/h 4.0mph /  6.4km/h 14% 0.00in /  0mm 819.0 W/m2
09:53 79.2 °F /  26.2 °C 25.9 °F /  -3.4 °C 29.67in /  1004.6hPa NE 8.1mph /  13km/h 10.0mph /  16.1km/h 14% 0.00in /  0mm 833.0 W/m2
09:58 79.7 °F /  26.5 °C 26.2 °F /  -3.2 °C 29.67in /  1004.6hPa WNW 6.9mph /  11.1km/h 11.0mph /  17.7km/h 14% 0.00in /  0mm 849.0 W/m2
10:03 79.9 °F /  26.6 °C 28.0 °F /  -2.2 °C 29.67in /  1004.6hPa NNW 2.9mph /  4.7km/h 6.0mph /  9.7km/h 15% 0.00in /  0mm 865.0 W/m2
10:08 80.4 °F /  26.9 °C 26.8 °F /  -2.9 °C 29.67in /  1004.6hPa NNW 6.0mph /  9.7km/h 9.0mph /  14.5km/h 14% 0.00in /  0mm 877.0 W/m2
10:13 81.0 °F /  27.2 °C 27.3 °F /  -2.6 °C 29.67in /  1004.6hPa WNW 2.0mph /  3.2km/h 6.0mph /  9.7km/h 14% 0.00in /  0mm 886.0 W/m2
10:19 81.1 °F /  27.3 °C 29.1 °F /  -1.6 °C 29.67in /  1004.6hPa NNW 6.9mph /  11.1km/h 11.0mph /  17.7km/h 15% 0.00in /  0mm 904.0 W/m2
10:24 81.3 °F /  27.4 °C 29.3 °F /  -1.5 °C 29.67in /  1004.6hPa SSW 0.9mph /  1.4km/h 13.0mph /  20.9km/h 15% 0.00in /  0mm 919.0 W/m2
10:29 81.3 °F /  27.4 °C 29.3 °F /  -1.5 °C 29.66in /  1004.3hPa Calm   4.0mph /  6.4km/h 15% 0.00in /  0mm 923.0 W/m2
10:34 82.0 °F /  27.8 °C 29.8 °F /  -1.2 °C 29.66in /  1004.3hPa NNW 6.9mph /  11.1km/h 13.0mph /  20.9km/h 15% 0.00in /  0mm 940.0 W/m2
10:40 82.6 °F /  28.1 °C 31.8 °F /  -0.1 °C 29.66in /  1004.3hPa NNW 6.0mph /  9.7km/h 9.0mph /  14.5km/h 16% 0.00in /  0mm 949.0 W/m2
10:45 83.1 °F /  28.4 °C 32.4 °F /  0.2 °C 29.66in /  1004.3hPa NW 2.9mph /  4.7km/h 7.0mph /  11.3km/h 16% 0.00in /  0mm 958.0 W/m2
10:50 83.7 °F /  28.7 °C 29.5 °F /  -1.4 °C 29.66in /  1004.3hPa NNE 6.9mph /  11.1km/h 7.0mph /  11.3km/h 14% 0.00in /  0mm 970.0 W/m2
10:55 83.8 °F /  28.8 °C 31.3 °F /  -0.4 °C 29.66in /  1004.3hPa WNW 2.9mph /  4.7km/h 10.0mph /  16.1km/h 15% 0.00in /  0mm 977.0 W/m2
11:00 83.8 °F /  28.8 °C 31.3 °F /  -0.4 °C 29.66in /  1004.3hPa NW 2.9mph /  4.7km/h 11.0mph /  17.7km/h 15% 0.00in /  0mm 990.0 W/m2
11:05 83.7 °F /  28.7 °C 29.5 °F /  -1.4 °C 29.65in /  1003.9hPa Calm   7.0mph /  11.3km/h 14% 0.00in /  0mm 997.0 W/m2
11:10 83.8 °F /  28.8 °C 29.5 °F /  -1.4 °C 29.65in /  1003.9hPa NW 4.0mph /  6.4km/h 8.0mph /  12.9km/h 14% 0.00in /  0mm 1005.0 W/m2
11:15 84.7 °F /  29.3 °C 30.2 °F /  -1 °C 29.65in /  1003.9hPa West 2.0mph /  3.2km/h 12.0mph /  19.3km/h 14% 0.00in /  0mm 1014.0 W/m2
11:21 85.3 °F /  29.6 °C 28.9 °F /  -1.7 °C 29.65in /  1003.9hPa NW 2.0mph /  3.2km/h 8.0mph /  12.9km/h 13% 0.00in /  0mm 1018.0 W/m2
11:26 85.5 °F /  29.7 °C 28.9 °F /  -1.7 °C 29.65in /  1003.9hPa WNW 8.1mph /  13km/h 9.0mph /  14.5km/h 13% 0.00in /  0mm 1028.0 W/m2
11:31 85.6 °F /  29.8 °C 29.1 °F /  -1.6 °C 29.64in /  1003.6hPa Calm   9.0mph /  14.5km/h 13% 0.00in /  0mm 1039.0 W/m2
11:36 85.8 °F /  29.9 °C 31.1 °F /  -0.5 °C 29.64in /  1003.6hPa NNW 0.9mph /  1.4km/h 12.0mph /  19.3km/h 14% 0.00in /  0mm 1041.0 W/m2
11:42 86.2 °F /  30.1 °C 29.7 °F /  -1.3 °C 29.64in /  1003.6hPa North 4.9mph /  7.9km/h 14.0mph /  22.5km/h 13% 0.00in /  0mm 1049.0 W/m2
11:52 86.9 °F /  30.5 °C 32.0 °F /  0 °C 29.64in /  1003.6hPa South 0.9mph /  1.4km/h 7.0mph /  11.3km/h 14% 0.00in /  0mm 1055.0 W/m2
11:57 87.3 °F /  30.7 °C 32.2 °F /  0.1 °C 29.64in /  1003.6hPa NNE 2.0mph /  3.2km/h 10.0mph /  16.1km/h 14% 0.00in /  0mm 1062.0 W/m2
12:03 87.1 °F /  30.6 °C 32.2 °F /  0.1 °C 29.64in /  1003.6hPa North 4.9mph /  7.9km/h 18.0mph /  29km/h 14% 0.00in /  0mm 1062.0 W/m2
12:08 87.1 °F /  30.6 °C 32.2 °F /  0.1 °C 29.64in /  1003.6hPa NW 4.9mph /  7.9km/h 8.0mph /  12.9km/h 14% 0.00in /  0mm 1067.0 W/m2
12:14 86.5 °F /  30.3 °C 33.4 °F /  0.8 °C 29.63in /  1003.3hPa WSW 2.0mph /  3.2km/h 17.0mph /  27.4km/h 15% 0.00in /  0mm 1065.0 W/m2
12:20 86.0 °F /  30 °C 32.9 °F /  0.5 °C 29.63in /  1003.3hPa North 4.0mph /  6.4km/h 10.0mph /  16.1km/h 15% 0.00in /  0mm 1000.0 W/m2
12:25 85.8 °F /  29.9 °C 34.5 °F /  1.4 °C 29.63in /  1003.3hPa NW 2.9mph /  4.7km/h 11.0mph /  17.7km/h 16% 0.00in /  0mm 1041.0 W/m2
12:30 86.2 °F /  30.1 °C 33.1 °F /  0.6 °C 29.63in /  1003.3hPa West 2.9mph /  4.7km/h 13.0mph /  20.9km/h 15% 0.00in /  0mm 1055.0 W/m2
12:35 86.4 °F /  30.2 °C 33.3 °F /  0.7 °C 29.63in /  1003.3hPa NW 2.9mph /  4.7km/h 16.0mph /  25.7km/h 15% 0.00in /  0mm 1074.0 W/m2
12:40 85.8 °F /  29.9 °C 32.9 °F /  0.5 °C 29.62in /  1002.9hPa West 4.9mph /  7.9km/h 15.0mph /  24.1km/h 15% 0.00in /  0mm 1079.0 W/m2
12:45 86.2 °F /  30.1 °C 33.1 °F /  0.6 °C 29.62in /  1002.9hPa WSW 6.9mph /  11.1km/h 11.0mph /  17.7km/h 15% 0.00in /  0mm 1044.0 W/m2
12:50 86.2 °F /  30.1 °C 34.7 °F /  1.5 °C 29.62in /  1002.9hPa WNW 4.9mph /  7.9km/h 11.0mph /  17.7km/h 16% 0.00in /  0mm 1100.0 W/m2
12:56 85.8 °F /  29.9 °C 34.5 °F /  1.4 °C 29.62in /  1002.9hPa NNE 4.9mph /  7.9km/h 8.0mph /  12.9km/h 16% 0.00in /  0mm 831.0 W/m2
13:01 86.2 °F /  30.1 °C 34.7 °F /  1.5 °C 29.62in /  1002.9hPa West 6.9mph /  11.1km/h 8.0mph /  12.9km/h 16% 0.00in /  0mm 789.0 W/m2
13:06 86.2 °F /  30.1 °C 33.1 °F /  0.6 °C 29.61in /  1002.6hPa NE 4.0mph /  6.4km/h 10.0mph /  16.1km/h 15% 0.00in /  0mm 969.0 W/m2
13:11 86.2 °F /  30.1 °C 33.1 °F /  0.6 °C 29.62in /  1002.9hPa SE 0.9mph /  1.4km/h 6.0mph /  9.7km/h 15% 0.00in /  0mm 1055.0 W/m2
13:16 86.5 °F /  30.3 °C 33.4 °F /  0.8 °C 29.62in /  1002.9hPa WNW 4.9mph /  7.9km/h 13.0mph /  20.9km/h 15% 0.00in /  0mm 1049.0 W/m2
13:21 86.4 °F /  30.2 °C 33.3 °F /  0.7 °C 29.62in /  1002.9hPa North 6.9mph /  11.1km/h 17.0mph /  27.4km/h 15% 0.00in /  0mm 1042.0 W/m2
13:26 86.5 °F /  30.3 °C 33.4 °F /  0.8 °C 29.62in /  1002.9hPa NW 8.1mph /  13km/h 18.0mph /  29km/h 15% 0.00in /  0mm 1035.0 W/m2
13:31 86.2 °F /  30.1 °C 31.5 °F /  -0.3 °C 29.62in /  1002.9hPa NNW 11.0mph /  17.7km/h 17.0mph /  27.4km/h 14% 0.00in /  0mm 1028.0 W/m2
13:36 86.2 °F /  30.1 °C 31.5 °F /  -0.3 °C 29.61in /  1002.6hPa NW 2.0mph /  3.2km/h 9.0mph /  14.5km/h 14% 0.00in /  0mm 1028.0 W/m2
13:41 86.4 °F /  30.2 °C 31.5 °F /  -0.3 °C 29.61in /  1002.6hPa NW 16.1mph /  25.9km/h 16.1mph /  25.9km/h 14% 0.00in /  0mm 1016.0 W/m2
13:46 86.5 °F /  30.3 °C 31.6 °F /  -0.2 °C 29.61in /  1002.6hPa ENE 0.9mph /  1.4km/h 10.0mph /  16.1km/h 14% 0.00in /  0mm 1013.0 W/m2
13:51 86.5 °F /  30.3 °C 29.8 °F /  -1.2 °C 29.62in /  1002.9hPa West 6.9mph /  11.1km/h 11.0mph /  17.7km/h 13% 0.00in /  0mm 1013.0 W/m2
13:57 86.2 °F /  30.1 °C 29.7 °F /  -1.3 °C 29.61in /  1002.6hPa NNW 8.1mph /  13km/h 11.0mph /  17.7km/h 13% 0.00in /  0mm 1023.0 W/m2
14:02 86.0 °F /  30 °C 29.5 °F /  -1.4 °C 29.61in /  1002.6hPa WSW 2.9mph /  4.7km/h 11.0mph /  17.7km/h 13% 0.00in /  0mm 904.0 W/m2
14:07 85.6 °F /  29.8 °C 29.1 °F /  -1.6 °C 29.60in /  1002.3hPa WNW 6.9mph /  11.1km/h 11.0mph /  17.7km/h 13% 0.00in /  0mm 962.0 W/m2
14:12 85.8 °F /  29.9 °C 29.3 °F /  -1.5 °C 29.60in /  1002.3hPa NW 2.0mph /  3.2km/h 14.0mph /  22.5km/h 13% 0.00in /  0mm 984.0 W/m2
14:17 86.4 °F /  30.2 °C 29.7 °F /  -1.3 °C 29.60in /  1002.3hPa NNW 2.0mph /  3.2km/h 7.0mph /  11.3km/h 13% 0.00in /  0mm 970.0 W/m2
14:22 86.4 °F /  30.2 °C 27.7 °F /  -2.4 °C 29.60in /  1002.3hPa West 4.9mph /  7.9km/h 10.0mph /  16.1km/h 12% 0.00in /  0mm 951.0 W/m2
14:27 86.4 °F /  30.2 °C 25.7 °F /  -3.5 °C 29.60in /  1002.3hPa West 14.1mph /  22.7km/h 15.0mph /  24.1km/h 11% 0.00in /  0mm 928.0 W/m2
14:32 85.8 °F /  29.9 °C 25.2 °F /  -3.8 °C 29.60in /  1002.3hPa East 6.9mph /  11.1km/h 9.0mph /  14.5km/h 11% 0.00in /  0mm 940.0 W/m2
14:37 86.2 °F /  30.1 °C 25.5 °F /  -3.6 °C 29.60in /  1002.3hPa WNW 0.9mph /  1.4km/h 13.0mph /  20.9km/h 11% 0.00in /  0mm 881.0 W/m2
14:43 85.8 °F /  29.9 °C 25.2 °F /  -3.8 °C 29.60in /  1002.3hPa WNW 4.9mph /  7.9km/h 14.0mph /  22.5km/h 11% 0.00in /  0mm 891.0 W/m2
14:47 85.6 °F /  29.8 °C 25.2 °F /  -3.8 °C 29.59in /  1001.9hPa WNW 6.9mph /  11.1km/h 11.0mph /  17.7km/h 11% 0.00in /  0mm 898.0 W/m2
14:52 85.5 °F /  29.7 °C 25.0 °F /  -3.9 °C 29.59in /  1001.9hPa WNW 4.0mph /  6.4km/h 12.0mph /  19.3km/h 11% 0.00in /  0mm 898.0 W/m2
14:57 85.6 °F /  29.8 °C 22.8 °F /  -5.1 °C 29.59in /  1001.9hPa West 8.1mph /  13km/h 15.0mph /  24.1km/h 10% 0.00in /  0mm 888.0 W/m2
15:02 85.3 °F /  29.6 °C 22.6 °F /  -5.2 °C 29.59in /  1001.9hPa NW 8.9mph /  14.3km/h 13.0mph /  20.9km/h 10% 0.00in /  0mm 875.0 W/m2
15:07 85.5 °F /  29.7 °C 22.6 °F /  -5.2 °C 29.59in /  1001.9hPa West 8.1mph /  13km/h 13.0mph /  20.9km/h 10% 0.00in /  0mm 847.0 W/m2
15:12 85.5 °F /  29.7 °C 22.6 °F /  -5.2 °C 29.59in /  1001.9hPa West 2.0mph /  3.2km/h 9.0mph /  14.5km/h 10% 0.00in /  0mm 867.0 W/m2
15:17 85.8 °F /  29.9 °C 23.0 °F /  -5 °C 29.59in /  1001.9hPa NW 8.1mph /  13km/h 11.0mph /  17.7km/h 10% 0.00in /  0mm 867.0 W/m2
15:22 85.5 °F /  29.7 °C 25.0 °F /  -3.9 °C 29.59in /  1001.9hPa WNW 8.9mph /  14.3km/h 18.0mph /  29km/h 11% 0.00in /  0mm 575.0 W/m2
15:28 84.6 °F /  29.2 °C 24.3 °F /  -4.3 °C 29.58in /  1001.6hPa NW 8.1mph /  13km/h 19.0mph /  30.6km/h 11% 0.00in /  0mm 747.0 W/m2
15:33 84.4 °F /  29.1 °C 21.9 °F /  -5.6 °C 29.58in /  1001.6hPa NW 4.0mph /  6.4km/h 11.0mph /  17.7km/h 10% 0.00in /  0mm 826.0 W/m2
15:38 84.7 °F /  29.3 °C 22.1 °F /  -5.5 °C 29.58in /  1001.6hPa WSW 2.9mph /  4.7km/h 13.0mph /  20.9km/h 10% 0.00in /  0mm 814.0 W/m2
15:43 84.9 °F /  29.4 °C 19.8 °F /  -6.8 °C 29.58in /  1001.6hPa WNW 4.0mph /  6.4km/h 15.0mph /  24.1km/h 9% 0.00in /  0mm 745.0 W/m2
15:48 84.7 °F /  29.3 °C 22.1 °F /  -5.5 °C 29.59in /  1001.9hPa NW 2.9mph /  4.7km/h 8.0mph /  12.9km/h 10% 0.00in /  0mm 728.0 W/m2
15:53 85.1 °F /  29.5 °C 19.9 °F /  -6.7 °C 29.58in /  1001.6hPa NW 4.9mph /  7.9km/h 13.0mph /  20.9km/h 9% 0.00in /  0mm 733.0 W/m2
15:58 85.5 °F /  29.7 °C 20.1 °F /  -6.6 °C 29.58in /  1001.6hPa WSW 2.9mph /  4.7km/h 21.0mph /  33.8km/h 9% 0.00in /  0mm 710.0 W/m2
16:03 85.5 °F /  29.7 °C 17.4 °F /  -8.1 °C 29.58in /  1001.6hPa West 6.9mph /  11.1km/h 12.0mph /  19.3km/h 8% 0.00in /  0mm 668.0 W/m2
16:08 85.3 °F /  29.6 °C 20.1 °F /  -6.6 °C 29.58in /  1001.6hPa WNW 8.9mph /  14.3km/h 15.0mph /  24.1km/h 9% 0.00in /  0mm 671.0 W/m2
16:13 85.5 °F /  29.7 °C 20.1 °F /  -6.6 °C 29.57in /  1001.2hPa WSW 2.0mph /  3.2km/h 9.0mph /  14.5km/h 9% 0.00in /  0mm 649.0 W/m2
16:18 85.5 °F /  29.7 °C 20.1 °F /  -6.6 °C 29.57in /  1001.2hPa WSW 2.0mph /  3.2km/h 9.0mph /  14.5km/h 9% 0.00in /  0mm 631.0 W/m2
16:24 85.5 °F /  29.7 °C 20.1 °F /  -6.6 °C 29.57in /  1001.2hPa WSW 4.9mph /  7.9km/h 9.0mph /  14.5km/h 9% 0.00in /  0mm 612.0 W/m2
16:29 85.1 °F /  29.5 °C 19.9 °F /  -6.7 °C 29.57in /  1001.2hPa WSW 11.0mph /  17.7km/h 13.0mph /  20.9km/h 9% 0.00in /  0mm 596.0 W/m2
16:34 84.4 °F /  29.1 °C 16.7 °F /  -8.5 °C 29.57in /  1001.2hPa West 6.9mph /  11.1km/h 13.0mph /  20.9km/h 8% 0.00in /  0mm 573.0 W/m2
16:39 84.0 °F /  28.9 °C 16.3 °F /  -8.7 °C 29.57in /  1001.2hPa West 8.1mph /  13km/h 16.0mph /  25.7km/h 8% 0.00in /  0mm 555.0 W/m2
16:44 83.7 °F /  28.7 °C 16.2 °F /  -8.8 °C 29.58in /  1001.6hPa WNW 4.0mph /  6.4km/h 14.0mph /  22.5km/h 8% 0.00in /  0mm 536.0 W/m2
16:49 83.5 °F /  28.6 °C 12.9 °F /  -10.6 °C 29.58in /  1001.6hPa West 13.0mph /  20.9km/h 13.0mph /  20.9km/h 7% 0.00in /  0mm 513.0 W/m2
16:55 82.6 °F /  28.1 °C 15.3 °F /  -9.3 °C 29.58in /  1001.6hPa WSW 12.1mph /  19.5km/h 22.0mph /  35.4km/h 8% 0.00in /  0mm 494.0 W/m2
17:00 82.2 °F /  27.9 °C 12.0 °F /  -11.1 °C 29.58in /  1001.6hPa NNW 0.9mph /  1.4km/h 12.0mph /  19.3km/h 7% 0.00in /  0mm 475.0 W/m2
17:06 82.4 °F /  28 °C 15.3 °F /  -9.3 °C 29.59in /  1001.9hPa WNW 2.0mph /  3.2km/h 13.0mph /  20.9km/h 8% 0.00in /  0mm 452.0 W/m2
17:12 82.8 °F /  28.2 °C 12.4 °F /  -10.9 °C 29.59in /  1001.9hPa West 4.9mph /  7.9km/h 10.0mph /  16.1km/h 7% 0.00in /  0mm 432.0 W/m2
17:17 82.8 °F /  28.2 °C 12.4 °F /  -10.9 °C 29.59in /  1001.9hPa West 8.1mph /  13km/h 18.0mph /  29km/h 7% 0.00in /  0mm 350.0 W/m2
17:22 82.4 °F /  28 °C 12.2 °F /  -11 °C 29.59in /  1001.9hPa West 2.9mph /  4.7km/h 12.0mph /  19.3km/h 7% 0.00in /  0mm 396.0 W/m2
17:27 82.2 °F /  27.9 °C 12.0 °F /  -11.1 °C 29.60in /  1002.3hPa West 4.9mph /  7.9km/h 16.0mph /  25.7km/h 7% 0.00in /  0mm 374.0 W/m2
17:32 81.9 °F /  27.7 °C 11.8 °F /  -11.2 °C 29.60in /  1002.3hPa WSW 8.1mph /  13km/h 8.1mph /  13km/h 7% 0.00in /  0mm 352.0 W/m2
17:37 81.7 °F /  27.6 °C 11.7 °F /  -11.3 °C 29.59in /  1001.9hPa West 2.0mph /  3.2km/h 12.0mph /  19.3km/h 7% 0.00in /  0mm 330.0 W/m2
17:42 81.3 °F /  27.4 °C 11.3 °F /  -11.5 °C 29.60in /  1002.3hPa SW 6.9mph /  11.1km/h 8.0mph /  12.9km/h 7% 0.00in /  0mm 311.0 W/m2
17:47 81.1 °F /  27.3 °C 11.3 °F /  -11.5 °C 29.60in /  1002.3hPa North 2.9mph /  4.7km/h 8.0mph /  12.9km/h 7% 0.00in /  0mm 290.0 W/m2
17:52 81.1 °F /  27.3 °C 11.3 °F /  -11.5 °C 29.60in /  1002.3hPa WNW 4.9mph /  7.9km/h 10.0mph /  16.1km/h 7% 0.00in /  0mm 271.0 W/m2
17:57 81.0 °F /  27.2 °C 11.1 °F /  -11.6 °C 29.60in /  1002.3hPa West 4.9mph /  7.9km/h 12.0mph /  19.3km/h 7% 0.00in /  0mm 250.0 W/m2
18:02 80.6 °F /  27 °C 7.3 °F /  -13.7 °C 29.60in /  1002.3hPa NNE 8.9mph /  14.3km/h 10.0mph /  16.1km/h 6% 0.00in /  0mm 229.0 W/m2
18:08 80.4 °F /  26.9 °C 10.8 °F /  -11.8 °C 29.60in /  1002.3hPa West 0.9mph /  1.4km/h 6.0mph /  9.7km/h 7% 0.00in /  0mm 207.0 W/m2
18:13 80.4 °F /  26.9 °C 10.8 °F /  -11.8 °C 29.60in /  1002.3hPa West 8.1mph /  13km/h 10.0mph /  16.1km/h 7% 0.00in /  0mm 183.0 W/m2
18:18 80.1 °F /  26.7 °C 10.4 °F /  -12 °C 29.60in /  1002.3hPa North 2.9mph /  4.7km/h 5.0mph /  8km/h 7% 0.00in /  0mm 149.0 W/m2
18:23 79.3 °F /  26.3 °C 6.4 °F /  -14.2 °C 29.61in /  1002.6hPa NW 4.0mph /  6.4km/h 9.0mph /  14.5km/h 6% 0.00in /  0mm 56.0 W/m2
18:28 79.2 °F /  26.2 °C 9.9 °F /  -12.3 °C 29.61in /  1002.6hPa NW 4.0mph /  6.4km/h 8.0mph /  12.9km/h 7% 0.00in /  0mm 37.0 W/m2
18:33 78.8 °F /  26 °C 9.5 °F /  -12.5 °C 29.61in /  1002.6hPa North 0.9mph /  1.4km/h 7.0mph /  11.3km/h 7% 0.00in /  0mm 30.0 W/m2
18:38 78.4 °F /  25.8 °C 9.3 °F /  -12.6 °C 29.62in /  1002.9hPa West 2.9mph /  4.7km/h 5.0mph /  8km/h 7% 0.00in /  0mm 25.0 W/m2
18:43 77.9 °F /  25.5 °C 5.5 °F /  -14.7 °C 29.62in /  1002.9hPa WNW 2.0mph /  3.2km/h 9.0mph /  14.5km/h 6% 0.00in /  0mm 19.0 W/m2
18:48 77.2 °F /  25.1 °C 5.0 °F /  -15 °C 29.62in /  1002.9hPa WNW 2.9mph /  4.7km/h 14.0mph /  22.5km/h 6% 0.00in /  0mm 14.0 W/m2
18:53 76.3 °F /  24.6 °C 4.3 °F /  -15.4 °C 29.62in /  1002.9hPa WNW 2.9mph /  4.7km/h 6.0mph /  9.7km/h 6% 0.00in /  0mm 11.0 W/m2
18:59 75.6 °F /  24.2 °C 3.7 °F /  -15.7 °C 29.62in /  1002.9hPa West 2.9mph /  4.7km/h 6.0mph /  9.7km/h 6% 0.00in /  0mm 9.0 W/m2
19:04 74.8 °F /  23.8 °C 3.2 °F /  -16 °C 29.62in /  1002.9hPa Calm   5.0mph /  8km/h 6% 0.00in /  0mm 7.0 W/m2
19:09 74.1 °F /  23.4 °C 2.7 °F /  -16.3 °C 29.62in /  1002.9hPa West 0.9mph /  1.4km/h 8.0mph /  12.9km/h 6% 0.00in /  0mm 5.0 W/m2
19:14 73.8 °F /  23.2 °C 2.5 °F /  -16.4 °C 29.63in /  1003.3hPa NW 4.0mph /  6.4km/h 7.0mph /  11.3km/h 6% 0.00in /  0mm 0.0 W/m2
19:19 73.2 °F /  22.9 °C 5.4 °F /  -14.8 °C 29.63in /  1003.3hPa NNW 2.0mph /  3.2km/h 5.0mph /  8km/h 7% 0.00in /  0mm 0.0 W/m2
19:24 72.9 °F /  22.7 °C 5.2 °F /  -14.9 °C 29.62in /  1002.9hPa NNW 0.9mph /  1.4km/h 4.0mph /  6.4km/h 7% 0.00in /  0mm 0.0 W/m2
19:29 72.5 °F /  22.5 °C 4.8 °F /  -15.1 °C 29.63in /  1003.3hPa WSW 0.9mph /  1.4km/h 6.0mph /  9.7km/h 7% 0.00in /  0mm 0.0 W/m2
19:34 72.1 °F /  22.3 °C 7.5 °F /  -13.6 °C 29.63in /  1003.3hPa Calm   2.0mph /  3.2km/h 8% 0.00in /  0mm 0.0 W/m2
19:39 72.0 °F /  22.2 °C 7.3 °F /  -13.7 °C 29.63in /  1003.3hPa West 6.0mph /  9.7km/h 6.0mph /  9.7km/h 8% 0.00in /  0mm 0.0 W/m2
19:45 71.8 °F /  22.1 °C 7.3 °F /  -13.7 °C 29.64in /  1003.6hPa WNW 2.9mph /  4.7km/h 3.0mph /  4.8km/h 8% 0.00in /  0mm 0.0 W/m2
19:50 71.4 °F /  21.9 °C 9.7 °F /  -12.4 °C 29.64in /  1003.6hPa West 2.0mph /  3.2km/h 5.0mph /  8km/h 9% 0.00in /  0mm 0.0 W/m2
19:55 71.1 °F /  21.7 °C 13.8 °F /  -10.1 °C 29.65in /  1003.9hPa West 6.9mph /  11.1km/h 9.0mph /  14.5km/h 11% 0.00in /  0mm 0.0 W/m2
20:00 70.5 °F /  21.4 °C 17.2 °F /  -8.2 °C 29.65in /  1003.9hPa WSW 2.9mph /  4.7km/h 7.0mph /  11.3km/h 13% 0.00in /  0mm 0.0 W/m2
20:05 70.2 °F /  21.2 °C 17.1 °F /  -8.3 °C 29.65in /  1003.9hPa West 2.0mph /  3.2km/h 5.0mph /  8km/h 13% 0.00in /  0mm 0.0 W/m2
20:10 69.8 °F /  21 °C 18.5 °F /  -7.5 °C 29.65in /  1003.9hPa Calm   8.0mph /  12.9km/h 14% 0.00in /  0mm 0.0 W/m2
20:15 69.4 °F /  20.8 °C 19.8 °F /  -6.8 °C 29.66in /  1004.3hPa WSW 4.9mph /  7.9km/h 5.0mph /  8km/h 15% 0.00in /  0mm 0.0 W/m2
20:20 69.1 °F /  20.6 °C 19.4 °F /  -7 °C 29.66in /  1004.3hPa West 4.9mph /  7.9km/h 5.0mph /  8km/h 15% 0.00in /  0mm 0.0 W/m2
20:26 68.5 °F /  20.3 °C 20.5 °F /  -6.4 °C 29.67in /  1004.6hPa SW 2.0mph /  3.2km/h 6.0mph /  9.7km/h 16% 0.00in /  0mm 0.0 W/m2
20:31 68.0 °F /  20 °C 20.1 °F /  -6.6 °C 29.66in /  1004.3hPa West 0.9mph /  1.4km/h 7.0mph /  11.3km/h 16% 0.00in /  0mm 0.0 W/m2
20:36 67.6 °F /  19.8 °C 19.8 °F /  -6.8 °C 29.66in /  1004.3hPa WSW 2.0mph /  3.2km/h 4.0mph /  6.4km/h 16% 0.00in /  0mm 0.0 W/m2
20:41 67.5 °F /  19.7 °C 19.8 °F /  -6.8 °C 29.67in /  1004.6hPa WSW 4.0mph /  6.4km/h 7.0mph /  11.3km/h 16% 0.00in /  0mm 0.0 W/m2
20:46 66.9 °F /  19.4 °C 20.7 °F /  -6.3 °C 29.67in /  1004.6hPa West 2.9mph /  4.7km/h 5.0mph /  8km/h 17% 0.00in /  0mm 0.0 W/m2
20:51 66.7 °F /  19.3 °C 20.5 °F /  -6.4 °C 29.67in /  1004.6hPa SW 0.9mph /  1.4km/h 5.0mph /  8km/h 17% 0.00in /  0mm 0.0 W/m2
20:56 66.4 °F /  19.1 °C 20.3 °F /  -6.5 °C 29.68in /  1005hPa Calm   5.0mph /  8km/h 17% 0.00in /  0mm 0.0 W/m2
21:01 66.0 °F /  18.9 °C 19.9 °F /  -6.7 °C 29.68in /  1005hPa SW 2.9mph /  4.7km/h 9.0mph /  14.5km/h 17% 0.00in /  0mm 0.0 W/m2
21:06 65.8 °F /  18.8 °C 21.2 °F /  -6 °C 29.68in /  1005hPa West 0.9mph /  1.4km/h 5.0mph /  8km/h 18% 0.00in /  0mm 0.0 W/m2
21:11 65.5 °F /  18.6 °C 20.8 °F /  -6.2 °C 29.68in /  1005hPa Calm   3.0mph /  4.8km/h 18% 0.00in /  0mm 0.0 W/m2
21:17 65.3 °F /  18.5 °C 20.7 °F /  -6.3 °C 29.68in /  1005hPa WSW 0.9mph /  1.4km/h 4.0mph /  6.4km/h 18% 0.00in /  0mm 0.0 W/m2
21:22 65.1 °F /  18.4 °C 20.5 °F /  -6.4 °C 29.68in /  1005hPa WSW 2.9mph /  4.7km/h 3.0mph /  4.8km/h 18% 0.00in /  0mm 0.0 W/m2
21:27 64.9 °F /  18.3 °C 20.5 °F /  -6.4 °C 29.68in /  1005hPa Calm   5.0mph /  8km/h 18% 0.00in /  0mm 0.0 W/m2
21:32 64.8 °F /  18.2 °C 21.6 °F /  -5.8 °C 29.68in /  1005hPa WSW 0.9mph /  1.4km/h 5.0mph /  8km/h 19% 0.00in /  0mm 0.0 W/m2
21:37 64.6 °F /  18.1 °C 21.4 °F /  -5.9 °C 29.68in /  1005hPa SW 0.9mph /  1.4km/h 4.0mph /  6.4km/h 19% 0.00in /  0mm 0.0 W/m2
21:42 64.2 °F /  17.9 °C 21.0 °F /  -6.1 °C 29.68in /  1005hPa West 0.9mph /  1.4km/h 2.0mph /  3.2km/h 19% 0.00in /  0mm 0.0 W/m2
21:47 64.0 °F /  17.8 °C 21.0 °F /  -6.1 °C 29.68in /  1005hPa Calm   1.0mph /  1.6km/h 19% 0.00in /  0mm 0.0 W/m2
21:52 63.9 °F /  17.7 °C 20.8 °F /  -6.2 °C 29.68in /  1005hPa Calm   2.0mph /  3.2km/h 19% 0.00in /  0mm 0.0 W/m2
21:57 63.7 °F /  17.6 °C 21.9 °F /  -5.6 °C 29.68in /  1005hPa WSW 0.9mph /  1.4km/h 1.0mph /  1.6km/h 20% 0.00in /  0mm 0.0 W/m2
22:02 63.3 °F /  17.4 °C 21.6 °F /  -5.8 °C 29.68in /  1005hPa Calm     20% 0.00in /  0mm 0.0 W/m2
22:08 63.1 °F /  17.3 °C 21.4 °F /  -5.9 °C 29.68in /  1005hPa Calm     20% 0.00in /  0mm 0.0 W/m2
22:13 63.0 °F /  17.2 °C 22.5 °F /  -5.3 °C 29.68in /  1005hPa Calm     21% 0.00in /  0mm 0.0 W/m2
22:18 62.8 °F /  17.1 °C 22.3 °F /  -5.4 °C 29.68in /  1005hPa Calm     21% 0.00in /  0mm 0.0 W/m2
22:23 62.4 °F /  16.9 °C 21.9 °F /  -5.6 °C 29.68in /  1005hPa Calm     21% 0.00in /  0mm 0.0 W/m2
22:28 62.2 °F /  16.8 °C 23.0 °F /  -5 °C 29.68in /  1005hPa Calm     22% 0.00in /  0mm 0.0 W/m2
22:33 62.1 °F /  16.7 °C 22.8 °F /  -5.1 °C 29.68in /  1005hPa Calm     22% 0.00in /  0mm 0.0 W/m2
22:38 61.5 °F /  16.4 °C 23.4 °F /  -4.8 °C 29.69in /  1005.3hPa Calm     23% 0.00in /  0mm 0.0 W/m2
22:43 61.2 °F /  16.2 °C 24.1 °F /  -4.4 °C 29.68in /  1005hPa Calm     24% 0.00in /  0mm 0.0 W/m2
22:49 60.8 °F /  16 °C 23.7 °F /  -4.6 °C 29.68in /  1005hPa Calm     24% 0.00in /  0mm 0.0 W/m2
22:54 60.4 °F /  15.8 °C 24.4 °F /  -4.2 °C 29.68in /  1005hPa Calm     25% 0.00in /  0mm 0.0 W/m2
22:59 60.1 °F /  15.6 °C 24.1 °F /  -4.4 °C 29.69in /  1005.3hPa Calm     25% 0.00in /  0mm 0.0 W/m2
23:04 59.5 °F /  15.3 °C 24.6 °F /  -4.1 °C 29.68in /  1005hPa Calm     26% 0.00in /  0mm 0.0 W/m2
23:09 59.4 °F /  15.2 °C 24.4 °F /  -4.2 °C 29.68in /  1005hPa Calm     26% 0.00in /  0mm 0.0 W/m2
23:14 58.8 °F /  14.9 °C 25.0 °F /  -3.9 °C 29.68in /  1005hPa Calm     27% 0.00in /  0mm 0.0 W/m2
23:19 58.6 °F /  14.8 °C 24.8 °F /  -4 °C 29.68in /  1005hPa Calm     27% 0.00in /  0mm 0.0 W/m2
23:25 58.1 °F /  14.5 °C 24.3 °F /  -4.3 °C 29.68in /  1005hPa Calm     27% 0.00in /  0mm 0.0 W/m2
23:31 57.7 °F /  14.3 °C 23.9 °F /  -4.5 °C 29.68in /  1005hPa Calm     27% 0.00in /  0mm 0.0 W/m2
23:36 57.4 °F /  14.1 °C 23.7 °F /  -4.6 °C 29.67in /  1004.6hPa Calm   1.0mph /  1.6km/h 27% 0.00in /  0mm 0.0 W/m2
23:41 57.0 °F /  13.9 °C 24.3 °F /  -4.3 °C 29.67in /  1004.6hPa Calm   1.0mph /  1.6km/h 28% 0.00in /  0mm 0.0 W/m2
23:46 56.8 °F /  13.8 °C 25.0 °F /  -3.9 °C 29.67in /  1004.6hPa Calm     29% 0.00in /  0mm 0.0 W/m2
23:51 56.5 °F /  13.6 °C 23.7 °F /  -4.6 °C 29.67in /  1004.6hPa Calm     28% 0.00in /  0mm 0.0 W/m2
23:56 56.1 °F /  13.4 °C 24.3 °F /  -4.3 °C 29.67in /  1004.6hPa Calm     29% 0.00in /  0mm 0.0 W/m2
Olympia, Windhoek, Namibia
Compliments of Weather Underground - 3.25 mb